createdAt,value
2023-03-01T00:05:22.126Z,6.09735
2023-03-01T00:15:23.260Z,5.9984
2023-03-01T00:25:24.426Z,6.08847
2023-03-01T00:35:25.581Z,6.15538
2023-03-01T00:45:26.719Z,6.26447
2023-03-01T00:55:27.861Z,6.04122
2023-03-01T01:15:50.128Z,6.13889
2023-03-01T01:25:51.533Z,6.10559
2023-03-01T01:35:52.690Z,6.09957
2023-03-01T01:45:53.828Z,6.20263
2023-03-01T01:55:54.950Z,6.35231
2023-03-01T02:05:56.099Z,5.81004
2023-03-01T02:15:57.355Z,5.84873
2023-03-01T02:25:58.516Z,6.05485
2023-03-01T02:35:59.691Z,6.05105
2023-03-01T02:46:01.049Z,6.09354
2023-03-01T02:56:02.608Z,6.17758
2023-03-01T03:06:04.314Z,6.33075
2023-03-01T03:16:06.131Z,6.3688
2023-03-01T03:26:07.829Z,6.26605
2023-03-01T03:36:09.508Z,6.39575
2023-03-01T03:46:11.234Z,6.44523
2023-03-01T03:56:12.486Z,5.99555
2023-03-01T04:06:13.618Z,5.79703
2023-03-01T04:16:15.090Z,6.00062
2023-03-01T04:26:16.285Z,6.00919
2023-03-01T04:36:17.604Z,6.14967
2023-03-01T04:46:18.871Z,6.15823
2023-03-01T04:56:20.112Z,5.93847
2023-03-01T05:06:21.569Z,5.9261
2023-03-01T05:16:22.681Z,6.03804
2023-03-01T05:26:28.556Z,6.25273
2023-03-01T05:36:30.511Z,6.07927
2023-03-01T05:46:32.301Z,6.13508
2023-03-01T05:56:33.625Z,6.14999
2023-03-01T06:06:35.089Z,6.27335
2023-03-01T06:16:36.637Z,6.14491
2023-03-01T06:26:37.807Z,6.11542
2023-03-01T06:36:38.953Z,6.33867
2023-03-01T06:46:40.139Z,6.0891
2023-03-01T06:56:41.638Z,6.065
2023-03-01T07:06:42.775Z,6.13286
2023-03-01T07:16:43.936Z,6.31869
2023-03-01T07:26:45.094Z,6.3948
2023-03-01T07:36:46.356Z,6.56668
2023-03-01T07:46:47.574Z,6.46298
2023-03-01T07:56:48.712Z,6.27398
2023-03-01T08:06:49.857Z,6.50643
2023-03-01T08:16:51.391Z,6.6022
2023-03-01T08:26:52.631Z,6.39893
2023-03-01T08:36:53.776Z,6.14555
2023-03-01T08:46:54.926Z,6.04756
2023-03-01T08:56:56.106Z,6.56129
2023-03-01T09:06:57.268Z,6.92693
2023-03-01T09:16:58.489Z,7.10959
2023-03-01T09:26:59.723Z,7.21266
2023-03-01T09:37:01.231Z,7.19427
2023-03-01T09:47:02.952Z,6.79786
2023-03-01T09:57:04.671Z,6.81404
2023-03-01T10:07:06.374Z,7.14416
2023-03-01T10:17:08.075Z,7.32682
2023-03-01T10:27:09.555Z,7.47872
2023-03-01T10:37:11.019Z,7.32111
2023-03-01T10:47:12.169Z,7.33253
2023-03-01T10:57:13.434Z,7.37344
2023-03-01T11:07:14.600Z,7.05759
2023-03-01T11:17:15.733Z,6.82609
2023-03-01T11:27:16.866Z,6.24861
2023-03-01T11:37:18.141Z,6.64089
2023-03-01T11:47:19.487Z,6.87239
2023-03-01T11:57:20.914Z,7.14733
2023-03-01T12:07:22.076Z,7.22503
2023-03-01T12:17:23.212Z,7.50663
2023-03-01T12:27:24.382Z,7.60748
2023-03-01T12:37:25.535Z,7.17556
2023-03-01T12:47:26.744Z,7.31953
2023-03-01T12:57:32.913Z,7.29384
2023-03-01T13:07:34.117Z,7.28591
2023-03-01T13:17:35.292Z,7.14384
2023-03-01T13:27:36.644Z,7.19522
2023-03-01T13:37:37.866Z,7.24659
2023-03-01T13:47:39.045Z,7.24881
2023-03-01T13:57:40.380Z,7.32302
2023-03-01T14:07:41.660Z,7.41149
2023-03-01T14:17:42.919Z,6.98243
2023-03-01T14:27:44.058Z,6.17885
2023-03-01T14:37:45.241Z,6.24988
2023-03-01T14:47:46.431Z,6.41129
2023-03-01T14:57:47.630Z,6.83497
2023-03-01T15:07:48.805Z,7.08105
2023-03-01T15:17:50.000Z,6.5096
2023-03-01T15:27:51.416Z,6.20104
2023-03-01T15:37:52.570Z,6.28508
2023-03-01T15:47:53.918Z,6.33962
2023-03-01T15:57:55.130Z,6.34597
2023-03-01T16:07:56.329Z,6.31426
2023-03-01T16:17:57.577Z,6.37229
2023-03-01T16:27:58.745Z,6.53085
2023-03-01T16:37:59.952Z,6.67545
2023-03-01T16:48:01.377Z,6.71066
2023-03-01T16:58:03.140Z,6.72873
2023-03-01T17:08:04.879Z,6.87619
2023-03-01T17:18:06.630Z,6.90854
2023-03-01T17:28:08.403Z,6.82038
2023-03-01T17:38:09.898Z,6.91266
2023-03-01T17:48:11.430Z,6.76742
2023-03-01T17:58:12.625Z,6.74237
2023-03-01T18:08:13.892Z,6.67609
2023-03-01T18:18:15.056Z,6.66784
2023-03-01T18:28:16.204Z,6.59998
2023-03-01T18:38:17.395Z,6.48677
2023-03-01T18:48:18.666Z,6.57207
2023-03-01T18:59:24.864Z,6.5004
2023-03-01T19:09:26.035Z,6.36848
2023-03-01T19:19:27.245Z,6.41668
2023-03-01T19:29:28.422Z,6.40146
2023-03-01T19:39:29.662Z,6.38244
2023-03-01T19:49:31.088Z,6.41795
2023-03-01T19:59:32.350Z,6.35643
2023-03-01T20:09:33.540Z,6.37197
2023-03-01T20:19:34.957Z,6.35421
2023-03-01T20:29:36.162Z,6.43698
2023-03-01T20:39:37.332Z,6.4059
2023-03-01T20:49:38.624Z,6.43413
2023-03-01T20:59:39.901Z,6.45632
2023-03-01T21:09:41.319Z,6.4985
2023-03-01T21:19:42.536Z,6.54766
2023-03-01T21:29:43.736Z,6.49565
2023-03-01T21:39:45.198Z,6.48994
2023-03-01T21:49:46.568Z,6.51594
2023-03-01T21:59:47.743Z,6.47408
2023-03-01T22:09:48.954Z,6.48772
2023-03-01T22:19:50.148Z,6.49818
2023-03-01T22:29:51.567Z,6.49723
2023-03-01T22:39:52.721Z,6.4947
2023-03-01T22:49:53.919Z,6.4522
2023-03-01T22:59:55.138Z,6.49438
2023-03-01T23:09:56.302Z,6.50484
2023-03-01T23:19:57.465Z,6.52038
2023-03-01T23:29:58.616Z,6.63518
2023-03-01T23:39:59.798Z,6.39227
2023-03-01T23:50:01.218Z,6.46457
